createdAt,value
2024-04-07T00:02:15.401Z,9.20
2024-04-07T00:04:42.438Z,10.40
2024-04-07T00:07:09.304Z,10.50
2024-04-07T00:09:38.335Z,10.50
2024-04-07T00:12:09.562Z,10.70
2024-04-07T00:14:37.552Z,10.40
2024-04-07T00:17:06.119Z,7.90
2024-04-07T00:19:34.343Z,8.60
2024-04-07T00:22:01.093Z,8.10
2024-04-07T00:24:27.753Z,7.20
2024-04-07T00:26:54.437Z,7.60
2024-04-07T00:29:21.228Z,8.90
2024-04-07T00:31:48.289Z,6.80
2024-04-07T00:34:15.086Z,7.00
2024-04-07T00:36:42.061Z,7.40
2024-04-07T00:39:08.796Z,6.20
2024-04-07T00:41:35.594Z,7.20
2024-04-07T00:44:02.464Z,8.50
2024-04-07T00:46:29.658Z,7.80
2024-04-07T00:48:56.297Z,8.60
2024-04-07T00:51:23.564Z,6.70
2024-04-07T00:53:50.249Z,8.00
2024-04-07T00:56:17.179Z,7.20
2024-04-07T00:58:44.003Z,9.00
2024-04-07T01:01:10.658Z,6.90
2024-04-07T01:03:37.573Z,6.70
2024-04-07T01:06:04.604Z,6.20
2024-04-07T01:08:31.622Z,6.00
2024-04-07T01:10:58.561Z,6.10
2024-04-07T01:13:28.140Z,6.10
2024-04-07T01:15:54.929Z,5.30
2024-04-07T01:18:21.854Z,6.60
2024-04-07T01:20:48.590Z,5.70
2024-04-07T01:23:18.462Z,5.90
2024-04-07T01:25:45.602Z,5.90
2024-04-07T01:28:12.757Z,6.80
2024-04-07T01:30:39.660Z,8.50
2024-04-07T01:33:06.907Z,7.40
2024-04-07T01:35:33.925Z,5.60
2024-04-07T01:38:02.096Z,6.30
2024-04-07T01:40:28.939Z,5.40
2024-04-07T01:42:55.668Z,5.90
2024-04-07T01:45:22.813Z,5.30
2024-04-07T01:47:49.645Z,5.00
2024-04-07T01:50:16.532Z,4.40
2024-04-07T01:52:43.351Z,6.00
2024-04-07T01:55:10.036Z,5.30
2024-04-07T01:57:37.191Z,4.70
2024-04-07T02:00:07.808Z,4.40
2024-04-07T02:02:35.128Z,5.10
2024-04-07T02:05:01.824Z,5.20
2024-04-07T02:07:28.530Z,5.00
2024-04-07T02:09:55.210Z,5.90
2024-04-07T02:12:22.288Z,6.80
2024-04-07T02:14:48.979Z,4.60
2024-04-07T02:17:16.192Z,4.20
2024-04-07T02:19:43.244Z,3.90
2024-04-07T02:22:10.107Z,4.30
2024-04-07T02:24:36.802Z,4.20
2024-04-07T02:27:03.976Z,4.70
2024-04-07T02:29:30.789Z,6.00
2024-04-07T02:31:57.590Z,8.00
2024-04-07T02:34:25.320Z,6.60
2024-04-07T02:36:52.075Z,5.30
2024-04-07T02:39:19.702Z,4.50
2024-04-07T02:41:46.824Z,4.20
2024-04-07T02:44:13.624Z,5.20
2024-04-07T02:46:59.487Z,5.50
2024-04-07T02:49:26.246Z,4.70
2024-04-07T02:51:52.959Z,5.60
2024-04-07T02:54:19.957Z,4.90
2024-04-07T02:56:46.772Z,6.00
2024-04-07T02:59:13.509Z,4.80
2024-04-07T03:01:40.258Z,5.10
2024-04-07T03:04:07.079Z,5.00
2024-04-07T03:06:33.721Z,6.60
2024-04-07T03:09:00.565Z,4.70
2024-04-07T03:11:27.399Z,5.90
2024-04-07T03:13:54.564Z,6.80
2024-04-07T03:16:21.389Z,6.60
2024-04-07T03:18:48.033Z,5.10
2024-04-07T03:21:14.670Z,6.00
2024-04-07T03:23:41.336Z,5.00
2024-04-07T03:26:08.064Z,8.00
2024-04-07T03:28:35.146Z,6.40
2024-04-07T03:31:04.430Z,8.60
2024-04-07T03:33:36.501Z,6.30
2024-04-07T03:36:04.727Z,5.70
2024-04-07T03:38:32.153Z,6.90
2024-04-07T03:41:03.551Z,5.60
2024-04-07T03:43:31.159Z,8.80
2024-04-07T03:46:04.180Z,7.90
2024-04-07T03:48:31.421Z,7.70
2024-04-07T03:50:58.271Z,7.50
2024-04-07T03:53:27.563Z,8.20
2024-04-07T03:55:54.246Z,7.40
2024-04-07T03:58:21.032Z,6.50
2024-04-07T04:00:47.692Z,9.20
2024-04-07T04:03:14.857Z,8.20
2024-04-07T04:05:42.122Z,8.00
2024-04-07T04:08:09.509Z,10.00
2024-04-07T04:10:40.127Z,6.70
2024-04-07T04:13:06.911Z,7.20
2024-04-07T04:15:35.854Z,7.60
2024-04-07T04:18:06.388Z,7.40
2024-04-07T04:20:33.236Z,7.20
2024-04-07T04:22:59.936Z,7.80
2024-04-07T04:25:27.557Z,9.10
2024-04-07T04:27:54.389Z,6.90
2024-04-07T04:30:21.183Z,10.50
2024-04-07T04:32:48.984Z,6.40
2024-04-07T04:35:15.926Z,7.60
2024-04-07T04:37:42.958Z,7.30
2024-04-07T04:40:11.812Z,6.40
2024-04-07T04:42:38.782Z,8.00
2024-04-07T04:45:09.178Z,5.40
2024-04-07T04:47:36.168Z,5.20
2024-04-07T04:50:03.523Z,7.10
2024-04-07T04:52:30.981Z,6.20
2024-04-07T04:54:58.233Z,5.00
2024-04-07T04:57:25.119Z,5.30
2024-04-07T04:59:56.759Z,4.60
2024-04-07T05:02:25.080Z,5.50
2024-04-07T05:04:51.804Z,6.80
2024-04-07T05:07:18.763Z,3.80
2024-04-07T05:09:48.599Z,5.20
2024-04-07T05:12:15.673Z,5.00
2024-04-07T05:14:43.214Z,5.20
2024-04-07T05:17:10.512Z,5.20
2024-04-07T05:19:37.293Z,3.80
2024-04-07T05:22:04.391Z,4.50
2024-04-07T05:24:33.240Z,3.00
2024-04-07T05:27:03.998Z,3.10
2024-04-07T05:29:30.858Z,3.30
2024-04-07T05:31:57.590Z,4.80
2024-04-07T05:34:26.987Z,2.70
2024-04-07T05:36:53.777Z,2.70
2024-04-07T05:39:20.943Z,4.50
2024-04-07T05:41:49.372Z,3.60
2024-04-07T05:44:16.153Z,3.00
2024-04-07T05:46:42.778Z,4.00
2024-04-07T05:49:09.694Z,3.00
2024-04-07T05:51:36.382Z,2.90
2024-04-07T05:54:03.452Z,3.60
2024-04-07T05:56:30.708Z,3.70
2024-04-07T05:58:57.293Z,3.50
2024-04-07T06:01:24.239Z,3.10
2024-04-07T06:03:51.112Z,2.70
2024-04-07T06:06:18.047Z,4.70
2024-04-07T06:08:44.772Z,3.60
2024-04-07T06:11:11.634Z,4.80
2024-04-07T06:13:38.422Z,4.70
2024-04-07T06:16:05.700Z,3.80
2024-04-07T06:18:34.799Z,3.90
2024-04-07T06:21:01.876Z,5.00
2024-04-07T06:23:29.217Z,2.90
2024-04-07T06:25:55.884Z,3.10
2024-04-07T06:28:22.690Z,3.60
2024-04-07T06:30:49.597Z,3.10
2024-04-07T06:33:17.083Z,3.10
2024-04-07T06:35:43.776Z,4.40
2024-04-07T06:38:10.548Z,2.70
2024-04-07T06:40:37.752Z,5.90
2024-04-07T06:43:04.562Z,4.00
2024-04-07T06:45:31.497Z,3.50
2024-04-07T06:47:58.533Z,2.60
2024-04-07T06:50:25.283Z,2.90
2024-04-07T06:52:51.953Z,2.80
2024-04-07T06:55:19.831Z,3.40
2024-04-07T06:57:46.630Z,5.00
2024-04-07T07:00:14.091Z,3.80
2024-04-07T07:02:40.882Z,3.90
2024-04-07T07:05:09.072Z,3.60
2024-04-07T07:07:36.058Z,3.20
2024-04-07T07:10:04.167Z,4.00
2024-04-07T07:12:31.566Z,3.50
2024-04-07T07:14:58.401Z,5.80
2024-04-07T07:17:25.206Z,4.00
2024-04-07T07:19:51.978Z,3.00
2024-04-07T07:22:18.714Z,6.00
2024-04-07T07:24:45.376Z,2.90
2024-04-07T07:27:12.199Z,3.50
2024-04-07T07:29:38.963Z,5.00
2024-04-07T07:32:07.174Z,2.50
2024-04-07T07:34:34.298Z,3.60
2024-04-07T07:37:01.315Z,4.40
2024-04-07T07:39:28.174Z,4.60
2024-04-07T07:41:55.347Z,2.70
2024-04-07T07:44:22.797Z,2.40
2024-04-07T07:46:49.816Z,3.00
2024-04-07T07:49:16.528Z,5.70
2024-04-07T07:51:43.607Z,2.60
2024-04-07T07:54:10.631Z,4.20
2024-04-07T07:56:37.376Z,3.40
2024-04-07T07:59:04.369Z,2.60
2024-04-07T08:01:31.513Z,3.60
2024-04-07T08:03:58.327Z,4.40
2024-04-07T08:06:25.776Z,2.90
2024-04-07T08:08:52.637Z,2.20
2024-04-07T08:11:19.804Z,2.50
2024-04-07T08:13:46.507Z,2.90
2024-04-07T08:16:13.431Z,2.20
2024-04-07T08:18:41.140Z,2.60
2024-04-07T08:21:08.045Z,2.40
2024-04-07T08:23:34.838Z,3.30
2024-04-07T08:26:02.273Z,3.70
2024-04-07T08:28:30.992Z,3.30
2024-04-07T08:30:58.163Z,4.20
2024-04-07T08:33:24.954Z,3.30
2024-04-07T08:35:51.788Z,2.90
2024-04-07T08:38:18.828Z,4.40
2024-04-07T08:40:47.430Z,2.90
2024-04-07T08:43:14.661Z,2.70
2024-04-07T08:45:41.421Z,2.30
2024-04-07T08:48:08.586Z,2.40
2024-04-07T08:50:36.211Z,2.40
2024-04-07T08:53:03.108Z,4.10
2024-04-07T08:55:30.224Z,3.00
2024-04-07T08:57:57.215Z,4.10
2024-04-07T09:00:24.366Z,2.50
2024-04-07T09:02:51.142Z,4.10
2024-04-07T09:05:18.296Z,3.00
2024-04-07T09:07:45.240Z,4.70
2024-04-07T09:10:12.068Z,2.10
2024-04-07T09:12:39.673Z,2.70
2024-04-07T09:15:09.056Z,3.10
2024-04-07T09:17:35.852Z,3.40
2024-04-07T09:20:07.173Z,4.00
2024-04-07T09:22:34.591Z,5.80
2024-04-07T09:25:03.401Z,3.20
2024-04-07T09:27:30.620Z,2.20
2024-04-07T09:29:57.457Z,5.50
2024-04-07T09:32:24.977Z,3.50
2024-04-07T09:34:52.093Z,3.30
2024-04-07T09:37:18.875Z,2.70
2024-04-07T09:39:45.816Z,2.90
2024-04-07T09:42:12.595Z,2.60
2024-04-07T09:44:41.586Z,5.70
2024-04-07T09:47:09.293Z,3.70
2024-04-07T09:49:37.691Z,3.90
2024-04-07T09:52:04.855Z,2.00
2024-04-07T09:54:32.325Z,2.30
2024-04-07T09:56:59.263Z,2.50
2024-04-07T09:59:27.078Z,3.10
2024-04-07T10:01:53.782Z,1.90
2024-04-07T10:04:25.067Z,3.00
2024-04-07T10:06:52.650Z,2.40
2024-04-07T10:09:20.069Z,2.30
2024-04-07T10:11:48.557Z,2.30
2024-04-07T10:14:16.261Z,3.10
2024-04-07T10:16:48.749Z,3.90
2024-04-07T10:19:16.086Z,3.00
2024-04-07T10:21:43.237Z,2.50
2024-04-07T10:24:10.223Z,4.20
2024-04-07T10:26:38.150Z,3.90
2024-04-07T10:29:08.092Z,4.30
2024-04-07T10:31:37.631Z,2.80
2024-04-07T10:34:04.984Z,3.60
2024-04-07T10:36:34.980Z,4.90
2024-04-07T10:39:03.281Z,3.80
2024-04-07T10:41:34.270Z,5.50
2024-04-07T10:44:01.666Z,5.10
2024-04-07T10:46:30.800Z,3.60
2024-04-07T10:48:58.421Z,3.50
2024-04-07T10:51:26.009Z,3.30
2024-04-07T10:54:02.404Z,4.10
2024-04-07T10:56:30.063Z,4.70
2024-04-07T10:58:58.154Z,4.40
2024-04-07T11:01:25.597Z,3.30
2024-04-07T11:03:53.845Z,7.20
2024-04-07T11:06:25.598Z,3.00
2024-04-07T11:08:53.228Z,2.70
2024-04-07T11:11:22.622Z,5.00
2024-04-07T11:16:22.963Z,5.30
2024-04-07T11:18:49.849Z,2.90
2024-04-07T11:21:18.360Z,3.80
2024-04-07T11:23:46.696Z,4.50
2024-04-07T11:26:16.003Z,5.30
2024-04-07T11:28:44.274Z,6.60
2024-04-07T11:31:11.371Z,3.20
2024-04-07T11:33:39.076Z,3.90
2024-04-07T11:36:06.491Z,2.90
2024-04-07T11:38:34.811Z,3.20
2024-04-07T11:41:01.711Z,4.70
2024-04-07T11:43:29.135Z,5.50
2024-04-07T11:45:56.104Z,4.30
2024-04-07T11:48:24.076Z,2.70
2024-04-07T11:50:51.054Z,4.20
2024-04-07T11:53:18.009Z,3.60
2024-04-07T11:55:44.913Z,4.30
2024-04-07T11:58:11.841Z,4.20
2024-04-07T12:00:38.800Z,5.40
2024-04-07T12:03:05.717Z,3.70
2024-04-07T12:05:32.712Z,7.00
2024-04-07T12:07:59.840Z,4.60
2024-04-07T12:10:26.841Z,3.40
2024-04-07T12:12:53.625Z,4.20
2024-04-07T12:15:21.728Z,4.90
2024-04-07T12:17:48.631Z,4.20
2024-04-07T12:20:15.483Z,4.50
2024-04-07T12:22:43.902Z,2.90
2024-04-07T12:25:10.883Z,3.40
2024-04-07T12:27:37.659Z,5.70
2024-04-07T12:30:05.068Z,8.60
2024-04-07T12:32:32.386Z,3.60
2024-04-07T12:34:59.328Z,5.60
2024-04-07T12:37:26.212Z,4.50
2024-04-07T12:39:53.061Z,7.10
2024-04-07T12:42:19.936Z,5.40
2024-04-07T12:44:46.861Z,4.60
2024-04-07T12:47:20.658Z,3.00
2024-04-07T12:49:48.008Z,6.50
2024-04-07T12:52:14.794Z,5.30
2024-04-07T12:54:41.580Z,4.00
2024-04-07T12:57:08.839Z,4.50
2024-04-07T12:59:35.778Z,4.50
2024-04-07T13:02:02.621Z,3.00
2024-04-07T13:04:29.690Z,5.50
2024-04-07T13:06:56.493Z,3.60
2024-04-07T13:09:23.461Z,4.00
2024-04-07T13:11:50.608Z,3.70
2024-04-07T13:14:18.026Z,3.50
2024-04-07T13:16:44.861Z,5.60
2024-04-07T13:19:13.751Z,4.10
2024-04-07T13:21:42.010Z,4.00
2024-04-07T13:24:09.140Z,6.60
2024-04-07T13:26:36.235Z,4.30
2024-04-07T13:29:04.299Z,4.70
2024-04-07T13:31:31.330Z,3.50
2024-04-07T13:34:01.683Z,3.50
2024-04-07T13:36:29.292Z,5.90
2024-04-07T13:38:56.237Z,3.60
2024-04-07T13:41:23.128Z,4.80
2024-04-07T13:43:49.841Z,4.70
2024-04-07T13:46:16.718Z,2.80
2024-04-07T13:48:43.688Z,5.30
2024-04-07T13:51:10.961Z,5.60
2024-04-07T13:53:37.724Z,5.20
2024-04-07T13:56:04.761Z,4.10
2024-04-07T13:58:31.823Z,6.20
2024-04-07T14:00:59.928Z,5.00
2024-04-07T14:03:28.447Z,3.10
2024-04-07T14:05:55.293Z,3.60
2024-04-07T14:08:22.130Z,3.40
2024-04-07T14:10:49.113Z,6.50
2024-04-07T14:13:16.224Z,4.80
2024-04-07T14:15:43.172Z,2.50
2024-04-07T14:18:09.977Z,4.20
2024-04-07T14:20:37.041Z,3.30
2024-04-07T14:23:04.543Z,4.30
2024-04-07T14:25:31.463Z,3.20
2024-04-07T14:27:58.483Z,2.60
2024-04-07T14:30:25.742Z,4.40
2024-04-07T14:32:52.886Z,6.00
2024-04-07T14:35:19.692Z,3.30
2024-04-07T14:37:47.372Z,5.40
2024-04-07T14:40:14.419Z,4.30
2024-04-07T14:42:41.308Z,4.60
2024-04-07T14:45:09.030Z,3.60
2024-04-07T14:47:36.235Z,3.60
2024-04-07T14:50:03.542Z,3.20
2024-04-07T14:52:31.454Z,3.60
2024-04-07T14:54:58.152Z,3.10
2024-04-07T14:57:24.931Z,5.40
2024-04-07T14:59:51.732Z,4.80
2024-04-07T15:02:18.517Z,5.30
2024-04-07T15:04:45.616Z,2.80
2024-04-07T15:07:13.387Z,4.40
2024-04-07T15:09:40.164Z,4.70
2024-04-07T15:12:07.357Z,3.90
2024-04-07T15:14:34.302Z,4.20
2024-04-07T15:17:01.082Z,5.80
2024-04-07T15:19:29.899Z,3.30
2024-04-07T15:21:58.168Z,4.70
2024-04-07T15:24:26.787Z,3.60
2024-04-07T15:26:53.542Z,6.90
2024-04-07T15:29:20.631Z,5.50
2024-04-07T15:31:48.418Z,4.50
2024-04-07T15:34:15.365Z,5.20
2024-04-07T15:36:42.382Z,4.90
2024-04-07T15:39:11.072Z,7.20
2024-04-07T15:44:06.379Z,4.90
2024-04-07T15:46:33.332Z,6.00
2024-04-07T15:49:00.172Z,7.00
2024-04-07T15:51:27.205Z,3.40
2024-04-07T15:53:55.274Z,3.30
2024-04-07T15:56:26.327Z,4.00
2024-04-07T15:58:55.048Z,4.00
2024-04-07T16:01:24.808Z,5.30
2024-04-07T16:03:51.567Z,5.70
2024-04-07T16:06:18.368Z,5.50
2024-04-07T16:08:45.435Z,2.90
2024-04-07T16:11:12.310Z,4.00
2024-04-07T16:13:39.248Z,5.10
2024-04-07T16:16:06.819Z,3.20
2024-04-07T16:18:33.648Z,4.20
2024-04-07T16:21:00.793Z,4.60
2024-04-07T16:23:27.780Z,4.20
2024-04-07T16:25:55.084Z,4.10
2024-04-07T16:28:22.451Z,8.00
2024-04-07T16:31:00.759Z,6.20
2024-04-07T16:33:28.411Z,5.40
2024-04-07T16:35:55.921Z,5.80
2024-04-07T16:38:22.945Z,4.90
2024-04-07T16:40:54.706Z,5.90
2024-04-07T16:43:21.662Z,6.30
2024-04-07T16:45:48.505Z,6.60
2024-04-07T16:48:17.436Z,6.90
2024-04-07T16:50:56.867Z,7.70
2024-04-07T16:53:23.801Z,5.70
2024-04-07T16:55:52.016Z,5.30
2024-04-07T16:58:20.953Z,5.00
2024-04-07T17:00:49.300Z,5.60
2024-04-07T17:03:16.365Z,4.10
2024-04-07T17:05:43.268Z,8.00
2024-04-07T17:08:11.833Z,6.90
2024-04-07T17:10:39.371Z,6.80
2024-04-07T17:13:08.164Z,5.20
2024-04-07T17:15:34.979Z,8.60
2024-04-07T17:18:02.169Z,6.60
2024-04-07T17:20:29.285Z,6.50
2024-04-07T17:22:56.198Z,6.60
2024-04-07T17:25:22.928Z,7.20
2024-04-07T17:27:50.213Z,4.50
2024-04-07T17:30:17.815Z,6.40
2024-04-07T17:32:44.673Z,9.70
2024-04-07T17:35:11.589Z,8.90
2024-04-07T17:37:38.495Z,8.00
2024-04-07T17:40:06.542Z,6.90
2024-04-07T17:42:33.934Z,6.00
2024-04-07T17:45:01.996Z,8.20
2024-04-07T17:47:30.334Z,8.60
2024-04-07T17:49:57.190Z,8.20
2024-04-07T17:52:23.944Z,6.70
2024-04-07T17:54:50.818Z,6.20
2024-04-07T17:57:19.938Z,4.80
2024-04-07T17:59:46.910Z,6.10
2024-04-07T18:02:13.956Z,6.70
2024-04-07T18:04:40.874Z,5.90
2024-04-07T18:07:07.818Z,6.60
2024-04-07T18:09:37.929Z,5.40
2024-04-07T18:12:04.765Z,5.80
2024-04-07T18:14:31.836Z,5.50
2024-04-07T18:16:58.773Z,8.30
2024-04-07T18:19:25.720Z,7.70
2024-04-07T18:21:52.582Z,6.60
2024-04-07T18:24:19.521Z,5.90
2024-04-07T18:26:46.371Z,10.80
2024-04-07T18:29:13.205Z,6.90
2024-04-07T18:31:40.048Z,8.50
2024-04-07T18:34:07.691Z,7.50
2024-04-07T18:36:34.739Z,9.80
2024-04-07T18:39:01.795Z,7.80
2024-04-07T18:41:28.752Z,7.10
2024-04-07T18:43:55.673Z,9.90
2024-04-07T18:46:22.541Z,8.30
2024-04-07T18:48:49.480Z,7.20
2024-04-07T18:51:16.529Z,7.80
2024-04-07T18:53:44.440Z,7.80
2024-04-07T18:56:11.258Z,8.80
2024-04-07T18:58:39.373Z,7.30
2024-04-07T19:01:06.348Z,7.60
2024-04-07T19:03:33.205Z,6.30
2024-04-07T19:06:00.031Z,7.60
2024-04-07T19:08:27.511Z,7.90
2024-04-07T19:11:01.282Z,8.10
2024-04-07T19:13:28.580Z,11.30
2024-04-07T19:15:59.992Z,8.40
2024-04-07T19:18:26.949Z,6.50
2024-04-07T19:21:06.803Z,8.80
2024-04-07T19:23:34.431Z,9.20
2024-04-07T19:26:01.480Z,7.10
2024-04-07T19:28:31.522Z,10.40
2024-04-07T19:30:58.879Z,7.90
2024-04-07T19:33:27.141Z,7.70
2024-04-07T19:35:54.613Z,9.60
2024-04-07T19:38:21.691Z,8.40
2024-04-07T19:40:49.043Z,6.90
2024-04-07T19:43:16.352Z,8.20
2024-04-07T19:45:43.353Z,9.60
2024-04-07T19:48:10.412Z,7.30
2024-04-07T19:50:37.517Z,11.40
2024-04-07T19:53:04.923Z,10.10
2024-04-07T19:55:31.746Z,7.40
2024-04-07T19:57:58.423Z,7.40
2024-04-07T20:00:28.162Z,7.50
2024-04-07T20:02:55.648Z,9.40
2024-04-07T20:05:22.653Z,9.40
2024-04-07T20:07:50.166Z,7.90
2024-04-07T20:10:17.263Z,7.20
2024-04-07T20:12:44.099Z,8.70
2024-04-07T20:15:11.303Z,6.80
2024-04-07T20:17:38.373Z,9.70
2024-04-07T20:20:06.038Z,7.30
2024-04-07T20:22:36.870Z,9.50
2024-04-07T20:25:07.470Z,6.60
2024-04-07T20:27:34.526Z,8.00
2024-04-07T20:30:02.037Z,10.10
2024-04-07T20:32:29.301Z,11.20
2024-04-07T20:34:56.507Z,7.60
2024-04-07T20:37:23.303Z,8.70
2024-04-07T20:39:50.089Z,10.60
2024-04-07T20:42:16.733Z,8.60
2024-04-07T20:44:43.523Z,7.60
2024-04-07T20:47:10.233Z,10.20
2024-04-07T20:49:37.070Z,8.20
2024-04-07T20:52:04.577Z,7.80
2024-04-07T20:54:31.578Z,10.30
2024-04-07T20:56:58.500Z,7.80
2024-04-07T20:59:25.382Z,8.00
2024-04-07T21:02:02.497Z,8.30
2024-04-07T21:04:38.058Z,9.50
2024-04-07T21:07:05.615Z,9.60
2024-04-07T21:09:34.753Z,10.40
2024-04-07T21:12:04.540Z,10.50
2024-04-07T21:14:34.713Z,8.40
2024-04-07T21:17:01.431Z,9.70
2024-04-07T21:19:28.448Z,10.70
2024-04-07T21:21:56.478Z,11.20
2024-04-07T21:24:23.955Z,13.90
2024-04-07T21:26:50.698Z,13.60
2024-04-07T21:29:17.476Z,16.10
2024-04-07T21:31:44.163Z,13.00
2024-04-07T21:34:10.794Z,13.20
2024-04-07T21:36:37.598Z,14.70
2024-04-07T21:39:04.306Z,13.50
2024-04-07T21:41:31.085Z,12.50
2024-04-07T21:43:57.796Z,11.40
2024-04-07T21:46:26.929Z,11.30
2024-04-07T21:48:55.447Z,11.70
2024-04-07T21:51:22.246Z,13.20
2024-04-07T21:53:48.845Z,12.70
2024-04-07T21:56:15.531Z,11.90
2024-04-07T21:58:42.486Z,10.30
2024-04-07T22:01:13.362Z,8.90
2024-04-07T22:03:41.387Z,10.30
2024-04-07T22:06:08.225Z,5.40
2024-04-07T22:08:35.196Z,7.80
2024-04-07T22:11:02.148Z,6.10
2024-04-07T22:13:29.111Z,5.30
2024-04-07T22:15:55.748Z,4.70
2024-04-07T22:18:26.160Z,5.20
2024-04-07T22:20:53.080Z,5.90
2024-04-07T22:23:20.014Z,5.40
2024-04-07T22:25:47.115Z,6.60
2024-04-07T22:28:13.956Z,7.60
2024-04-07T22:30:40.618Z,7.40
2024-04-07T22:33:08.465Z,5.60
2024-04-07T22:35:35.586Z,7.30
2024-04-07T22:38:02.529Z,7.30
2024-04-07T22:40:29.520Z,6.40
2024-04-07T22:42:56.135Z,9.10
2024-04-07T22:45:22.827Z,6.40
2024-04-07T22:47:49.945Z,9.50
2024-04-07T22:50:16.680Z,9.00
2024-04-07T22:52:43.522Z,6.90
2024-04-07T22:55:10.296Z,10.80
2024-04-07T22:57:37.079Z,10.20
2024-04-07T23:00:04.435Z,11.30
2024-04-07T23:02:32.838Z,7.20
2024-04-07T23:05:00.491Z,8.30
2024-04-07T23:07:27.142Z,12.30
2024-04-07T23:09:53.963Z,8.90
2024-04-07T23:12:20.939Z,9.50
2024-04-07T23:14:49.395Z,10.30
2024-04-07T23:17:16.420Z,13.70
2024-04-07T23:19:43.170Z,13.00
2024-04-07T23:22:10.471Z,11.20
2024-04-07T23:24:37.194Z,12.10
2024-04-07T23:27:04.304Z,13.20
2024-04-07T23:29:31.497Z,13.80
2024-04-07T23:31:59.980Z,10.50
2024-04-07T23:34:27.019Z,10.40
2024-04-07T23:36:53.749Z,13.40
2024-04-07T23:39:20.425Z,12.70
2024-04-07T23:41:47.097Z,12.00
2024-04-07T23:44:13.756Z,15.50
2024-04-07T23:46:40.708Z,11.70
2024-04-07T23:49:09.697Z,16.10
2024-04-07T23:51:37.061Z,13.10
2024-04-07T23:54:03.882Z,14.30
2024-04-07T23:56:30.801Z,14.80
2024-04-07T23:58:57.868Z,12.40
